CYHU/YHU METAR and TAF weather

Enter ICAO airport designator
Station Type Date Time Source
CYHU METAR 2021/09/16 21:00 UTC NOAA

CYHU 162100Z AUTO 14004KT 9SM CLR 23/08 A3025 RMK SLP246 DENSITY ALT 700FT


Station Type Date Time Source
CYHU Decoded METAR 2021/09/16 21:00 UTC NOAA

Saint Hubert Airport , Canada (CYHU) 45-31N 073-25W
Sep 16, 2021 - 05:00 PM EDT / 2021.09.16 2100 UTC
Wind: from the SE (140 degrees) at 5 MPH (4 KT):0
Visibility: 9 mile(s):0
Sky conditions: clear
Temperature: 73 F (23 C)
Dew Point: 46 F (8 C)
Relative Humidity: 38%
Pressure (altimeter): 30.25 in. Hg (1024 hPa)
ob: CYHU 162100Z AUTO 14004KT 9SM CLR 23/08 A3025 RMK SLP246 DENSITY ALT 700FT
cycle: 21

Station Type Date Time Source
CYHU TAF 2021/09/16 18:42 UTC NOAA

TAF CYHU 161738Z 1618/1718 14005KT P6SM FEW030 SCT240
FM162100 09007KT P6SM SCT040 SCT240
FM170200 VRB03KT P6SM SKC PROB30 1708/1713 1SM BR FEW002
FM171300 19006KT P6SM SCT020
FM171600 19010KT P6SM FEW030
RMK FCST BASED ON AUTO OBS. NXT FCST BY 170000Z

Example: see airport list